Time;durP1;ratioP1;P1;durP2;ratioP2;P2;SDS_P1;SDS_P2;PMS_P1;PMS_P2;Temp;Humidity;BMP_temperature;BMP_pressure;BME280_temperature;BME280_humidity;BME280_pressure;Samples;Min_cycle;Max_cycle;Signal;HPM_P1;HPM_P2
2024/01/21 00:01:29;;;;;;;13.40;7.15;;;;;;;-3.00;100.00;99829.97;5097884;28;20048;-55
2024/01/21 00:03:55;;;;;;;13.93;7.35;;;;;;;-3.16;100.00;99828.25;5098099;28;20084;-56
2024/01/21 00:06:22;;;;;;;17.00;8.15;;;;;;;-3.23;100.00;99819.59;5097764;28;20048;-58
2024/01/21 00:08:48;;;;;;;20.40;8.10;;;;;;;-3.08;100.00;99836.59;5098107;28;20048;-58
2024/01/21 00:11:14;;;;;;;15.85;6.40;;;;;;;-3.11;100.00;99839.00;5097706;28;20048;-55
2024/01/21 00:13:40;;;;;;;22.05;8.35;;;;;;;-3.31;100.00;99829.75;5098161;28;20051;-55
2024/01/21 00:16:06;;;;;;;15.73;7.32;;;;;;;-3.23;100.00;99838.38;5097754;28;20434;-56
2024/01/21 00:18:33;;;;;;;20.80;8.38;;;;;;;-3.31;100.00;99851.19;5098346;28;20052;-55
2024/01/21 00:20:59;;;;;;;23.08;10.93;;;;;;;-3.35;100.00;99850.09;5096861;28;20445;-58
2024/01/21 00:23:25;;;;;;;17.67;9.23;;;;;;;-3.32;100.00;99854.94;5097214;28;20047;-55
2024/01/21 00:25:52;;;;;;;15.40;7.53;;;;;;;-3.22;100.00;99853.41;5097589;28;20189;-57
2024/01/21 00:28:18;;;;;;;14.70;6.97;;;;;;;-3.25;100.00;99849.38;5097571;28;20052;-57
2024/01/21 00:30:44;;;;;;;15.27;7.80;;;;;;;-3.15;100.00;99851.31;5097981;28;20085;-58
2024/01/21 00:33:11;;;;;;;24.08;8.98;;;;;;;-3.58;100.00;99815.59;5097619;28;20456;-56
2024/01/21 00:35:37;;;;;;;17.27;8.48;;;;;;;-3.58;100.00;99851.25;5097657;28;20044;-58
2024/01/21 00:38:03;;;;;;;17.35;8.10;;;;;;;-3.27;100.00;99861.41;5097370;28;20048;-58
2024/01/21 00:40:30;;;;;;;19.15;9.68;;;;;;;-3.59;100.00;99855.00;5097578;28;20095;-59
2024/01/21 00:42:58;;;;;;;22.55;9.23;;;;;;;-3.49;100.00;99858.84;5097173;28;20052;-57
2024/01/21 00:45:25;;;;;;;21.65;8.82;;;;;;;-3.65;100.00;99855.19;5097574;28;20071;-57
2024/01/21 00:47:51;;;;;;;21.10;9.75;;;;;;;-3.47;100.00;99908.41;5097076;28;20384;-58
2024/01/21 00:50:17;;;;;;;30.42;9.35;;;;;;;-3.39;100.00;99923.25;5096885;28;20094;-55
2024/01/21 00:52:43;;;;;;;23.13;10.48;;;;;;;-3.51;100.00;99922.59;5097603;28;20117;-56
2024/01/21 00:55:09;;;;;;;19.92;9.02;;;;;;;-3.32;100.00;99937.25;5096894;28;20087;-57
2024/01/21 00:57:36;;;;;;;24.63;12.18;;;;;;;-3.46;100.00;99946.78;5097303;28;20047;-54
2024/01/21 01:00:04;;;;;;;21.17;10.05;;;;;;;-3.52;100.00;99966.56;5096967;28;20084;-53
2024/01/21 01:02:30;;;;;;;30.55;10.35;;;;;;;-3.41;100.00;99981.66;5097254;28;20048;-53
2024/01/21 01:04:56;;;;;;;20.40;9.80;;;;;;;-3.28;100.00;99992.00;5097003;28;20048;-56
2024/01/21 01:07:23;;;;;;;28.98;13.00;;;;;;;-3.26;100.00;99989.88;5097150;28;20400;-54
2024/01/21 01:09:49;;;;;;;28.73;11.63;;;;;;;-3.27;100.00;100008.88;5096723;28;20059;-56
2024/01/21 01:12:15;;;;;;;22.13;11.05;;;;;;;-3.42;100.00;99998.84;5097266;28;20048;-56
2024/01/21 01:14:42;;;;;;;21.38;9.20;;;;;;;-3.38;100.00;100016.84;5096661;28;20051;-54
2024/01/21 01:17:08;;;;;;;27.25;11.13;;;;;;;-3.28;100.00;100026.84;5097150;28;20052;-53
2024/01/21 01:19:34;;;;;;;25.63;11.75;;;;;;;-3.38;100.00;100040.16;5096846;28;20066;-54
2024/01/21 01:22:01;;;;;;;25.70;10.00;;;;;;;-3.16;100.00;100056.22;5096650;28;20067;-55
2024/01/21 01:24:27;;;;;;;29.90;12.32;;;;;;;-3.20;100.00;100066.66;5096674;28;20048;-52
2024/01/21 01:26:53;;;;;;;26.38;10.98;;;;;;;-3.32;100.00;100066.78;5096751;28;20079;-56
2024/01/21 01:29:19;;;;;;;26.42;11.00;;;;;;;-3.32;100.00;100072.13;5096838;28;20074;-55
2024/01/21 01:31:46;;;;;;;30.08;13.25;;;;;;;-3.52;100.00;100079.94;5096496;28;20084;-53
2024/01/21 01:34:12;;;;;;;25.25;12.43;;;;;;;-3.41;100.00;100095.06;5096743;28;20109;-56
2024/01/21 01:36:39;;;;;;;17.27;8.48;;;;;;;-3.23;100.00;100103.84;5096424;28;20372;-56
2024/01/21 01:39:07;;;;;;;19.42;9.48;;;;;;;-3.13;100.00;100109.38;5096776;28;20064;-55
2024/01/21 01:41:33;;;;;;;25.00;10.23;;;;;;;-2.94;100.00;100116.00;5096328;28;20052;-56
2024/01/21 01:43:59;;;;;;;29.67;12.18;;;;;;;-3.20;100.00;100101.50;5096810;28;20098;-54
2024/01/21 01:46:25;;;;;;;28.98;12.95;;;;;;;-3.12;100.00;100105.63;5096180;28;20066;-53
2024/01/21 01:48:52;;;;;;;22.23;10.77;;;;;;;-3.22;100.00;100109.00;5096464;28;20048;-52
2024/01/21 01:51:19;;;;;;;12.40;6.45;;;;;;;-3.00;100.00;100117.03;5096063;28;20067;-58
2024/01/21 01:53:46;;;;;;;22.48;8.93;;;;;;;-3.18;100.00;100101.25;5096170;28;20117;-52
2024/01/21 01:56:12;;;;;;;23.70;9.25;;;;;;;-3.09;100.00;100124.69;5096307;28;20052;-54
2024/01/21 01:58:41;;;;;;;22.40;8.38;;;;;;;-3.03;100.00;100124.72;5096314;28;20048;-56
2024/01/21 02:01:07;;;;;;;36.00;10.68;;;;;;;-3.09;100.00;100116.66;5096384;28;20408;-53
2024/01/21 02:03:34;;;;;;;21.02;10.55;;;;;;;-3.20;100.00;100106.88;5096066;28;20381;-57
2024/01/21 02:06:00;;;;;;;23.92;10.23;;;;;;;-3.17;100.00;100122.44;5096509;28;20056;-56
2024/01/21 02:08:26;;;;;;;21.60;11.10;;;;;;;-3.16;100.00;100126.75;5096002;28;20106;-56
2024/01/21 02:10:53;;;;;;;21.13;11.32;;;;;;;-3.23;100.00;100125.31;5096455;28;20099;-55
2024/01/21 02:13:20;;;;;;;26.15;9.68;;;;;;;-2.95;100.00;100141.22;5095867;28;20079;-52
2024/01/21 02:15:46;;;;;;;21.27;8.98;;;;;;;-3.10;100.00;100115.03;5095808;28;20048;-53
2024/01/21 02:18:12;;;;;;;19.92;9.10;;;;;;;-3.14;100.00;100113.09;5096202;28;20051;-57
2024/01/21 02:20:38;;;;;;;20.58;8.02;;;;;;;-3.03;100.00;100125.56;5095998;28;20367;-55
2024/01/21 02:23:07;;;;;;;22.77;9.43;;;;;;;-3.24;100.00;100103.06;5096085;28;20099;-54
2024/01/21 02:25:33;;;;;;;21.63;9.05;;;;;;;-2.97;100.00;100121.06;5095991;28;20348;-53
2024/01/21 02:27:59;;;;;;;17.13;9.05;;;;;;;-3.15;100.00;100109.59;5096137;28;20079;-59
2024/01/21 02:30:25;;;;;;;24.13;11.07;;;;;;;-3.12;100.00;100105.63;5095683;28;20493;-54
2024/01/21 02:32:51;;;;;;;24.63;10.77;;;;;;;-3.01;100.00;100125.31;5096056;28;20048;-53
2024/01/21 02:35:17;;;;;;;19.85;9.43;;;;;;;-2.83;100.00;100127.66;5095653;28;20059;-57
2024/01/21 02:37:43;;;;;;;33.50;11.57;;;;;;;-2.72;100.00;100123.19;5096099;28;20124;-54
2024/01/21 02:40:11;;;;;;;24.80;10.05;;;;;;;-2.88;100.00;100103.44;5095590;28;20071;-53
2024/01/21 02:42:37;;;;;;;25.48;9.55;;;;;;;-3.04;100.00;100117.75;5096052;28;20079;-54
2024/01/21 02:45:04;;;;;;;30.67;12.27;;;;;;;-3.04;100.00;100144.59;5096790;28;20080;-57
2024/01/21 02:47:31;;;;;;;29.05;11.63;;;;;;;-2.89;100.00;100152.81;5098972;28;20052;-55
2024/01/21 02:49:57;;;;;;;28.85;12.02;;;;;;;-2.65;100.00;100153.34;5099036;28;20051;-57
2024/01/21 02:52:23;;;;;;;21.10;10.32;;;;;;;-2.89;100.00;100136.72;5099189;28;20051;-56
2024/01/21 02:54:50;;;;;;;28.25;10.45;;;;;;;-2.99;100.00;100132.06;5099047;28;20063;-55
2024/01/21 02:57:17;;;;;;;26.08;11.80;;;;;;;-3.06;100.00;100144.03;5099047;28;20063;-57
2024/01/21 02:59:43;;;;;;;26.98;10.43;;;;;;;-2.89;100.00;100147.44;5099290;28;20124;-53
2024/01/21 03:02:09;;;;;;;21.80;9.30;;;;;;;-2.91;100.00;100142.31;5098821;28;20447;-58
2024/01/21 03:04:36;;;;;;;25.80;10.63;;;;;;;-2.61;100.00;100151.75;5099223;28;20136;-54
2024/01/21 03:07:02;;;;;;;27.02;11.57;;;;;;;-2.92;100.00;100119.25;5098738;28;20052;-56
2024/01/21 03:09:29;;;;;;;21.95;10.25;;;;;;;-2.94;100.00;100134.78;5099437;28;20068;-57
2024/01/21 03:11:56;;;;;;;21.88;10.43;;;;;;;-2.75;100.00;100119.16;5098658;28;20055;-53
2024/01/21 03:14:23;;;;;;;28.40;10.00;;;;;;;-2.97;100.00;100092.34;5098632;28;20109;-56
2024/01/21 03:16:49;;;;;;;19.00;8.57;;;;;;;-2.91;100.00;100095.91;5098581;28;20113;-57
2024/01/21 03:19:16;;;;;;;25.08;10.55;;;;;;;-3.15;100.00;100077.41;5098448;28;20436;-58
2024/01/21 03:21:42;;;;;;;18.63;8.65;;;;;;;-2.81;100.00;100097.88;5098959;28;20405;-56
2024/01/21 03:24:08;;;;;;;31.52;10.55;;;;;;;-2.91;100.00;100075.25;5098404;28;20118;-58
2024/01/21 03:26:35;;;;;;;26.42;10.27;;;;;;;-2.77;100.00;100082.88;5098830;28;20056;-56
2024/01/21 03:29:01;;;;;;;23.02;9.95;;;;;;;-3.18;100.00;100080.59;5098492;28;20060;-58
2024/01/21 03:31:28;;;;;;;25.75;10.15;;;;;;;-2.95;100.00;100124.31;5098690;28;20055;-58
2024/01/21 03:33:55;;;;;;;25.75;12.65;;;;;;;-3.10;100.00;100125.78;5098311;28;20048;-58
2024/01/21 03:36:21;;;;;;;24.88;9.48;;;;;;;-2.90;100.00;100140.44;5098641;28;20048;-55
2024/01/21 03:38:50;;;;;;;19.30;9.10;;;;;;;-2.70;100.00;100118.38;5098285;28;20090;-58
2024/01/21 03:41:16;;;;;;;27.52;10.48;;;;;;;-2.95;100.00;100109.00;5098189;28;20058;-57
2024/01/21 03:43:43;;;;;;;20.00;10.02;;;;;;;-3.13;100.00;100109.38;5098738;28;20052;-55
2024/01/21 03:46:09;;;;;;;30.50;10.00;;;;;;;-3.15;100.00;100124.88;5098160;28;20439;-57
2024/01/21 03:48:36;;;;;;;22.17;8.90;;;;;;;-2.89;100.00;100145.56;5098220;28;20374;-58
2024/01/21 03:51:03;;;;;;;21.63;9.50;;;;;;;-3.07;100.00;100127.13;5098203;28;20047;-57
2024/01/21 03:53:29;;;;;;;22.65;9.15;;;;;;;-3.02;100.00;100143.28;5098270;28;20427;-58
2024/01/21 03:55:55;;;;;;;22.77;8.57;;;;;;;-2.99;100.00;100105.22;5096984;28;20048;-57
2024/01/21 03:58:22;;;;;;;16.13;7.80;;;;;;;-2.93;100.00;100114.13;5097905;28;20056;-54
2024/01/21 04:00:48;;;;;;;24.15;10.98;;;;;;;-3.36;100.00;100064.84;5097983;28;20048;-58
2024/01/21 04:03:14;;;;;;;19.27;8.77;;;;;;;-3.23;100.00;100109.22;5098335;28;20067;-56
2024/01/21 04:05:41;;;;;;;20.70;9.57;;;;;;;-3.31;100.00;100103.25;5097830;28;20443;-56
2024/01/21 04:08:08;;;;;;;18.60;8.30;;;;;;;-3.00;100.00;100113.50;5098219;28;20088;-56
2024/01/21 04:10:34;;;;;;;24.88;10.85;;;;;;;-3.13;100.00;100083.34;5097752;28;20048;-55
2024/01/21 04:13:00;;;;;;;20.70;9.73;;;;;;;-2.96;100.00;100099.34;5097751;28;20127;-58
2024/01/21 04:15:27;;;;;;;27.50;9.27;;;;;;;-3.10;100.00;100085.53;5097662;28;20052;-56
2024/01/21 04:17:53;;;;;;;25.08;8.68;;;;;;;-3.43;100.00;100057.00;5097599;28;20092;-55
2024/01/21 04:20:20;;;;;;;18.90;8.85;;;;;;;-2.84;100.00;100112.59;5097961;28;20131;-55
2024/01/21 04:22:47;;;;;;;18.45;8.48;;;;;;;-2.85;100.00;100068.06;5097696;28;20298;-58
2024/01/21 04:25:13;;;;;;;20.85;8.63;;;;;;;-2.94;100.00;100064.22;5097890;28;20079;-56
2024/01/21 04:27:39;;;;;;;24.65;9.43;;;;;;;-3.10;100.00;100065.91;5097460;28;20048;-57
2024/01/21 04:30:07;;;;;;;26.02;9.93;;;;;;;-3.13;100.00;100064.56;5097752;28;20048;-53
2024/01/21 04:32:33;;;;;;;28.23;9.43;;;;;;;-3.26;100.00;100061.47;5097404;28;20052;-53
2024/01/21 04:35:00;;;;;;;26.90;8.45;;;;;;;-2.92;100.00;100099.66;5097742;28;20097;-57
2024/01/21 04:37:26;;;;;;;30.85;9.40;;;;;;;-3.35;100.00;100069.16;5097185;28;20083;-57
2024/01/21 04:39:53;;;;;;;26.70;9.77;;;;;;;-3.09;100.00;100103.22;5097282;28;20048;-53
2024/01/21 04:42:19;;;;;;;20.10;9.48;;;;;;;-2.94;100.00;100096.41;5097241;28;20055;-58
2024/01/21 04:44:45;;;;;;;24.58;10.02;;;;;;;-3.00;100.00;100076.78;5097201;28;20087;-52
2024/01/21 04:47:12;;;;;;;19.00;9.45;;;;;;;-3.52;100.00;100066.53;5097569;28;20109;-56
2024/01/21 04:49:38;;;;;;;23.35;10.93;;;;;;;-3.39;100.00;100151.16;5097100;28;20052;-57
2024/01/21 04:52:05;;;;;;;33.20;9.38;;;;;;;-3.31;100.00;100178.31;5097458;28;20101;-53
2024/01/21 04:54:31;;;;;;;25.85;11.57;;;;;;;-3.19;100.00;100183.59;5097074;28;20087;-56
2024/01/21 04:56:58;;;;;;;17.85;8.73;;;;;;;-3.23;100.00;100170.91;5096982;28;20209;-53
2024/01/21 04:59:25;;;;;;;20.80;7.57;;;;;;;-3.07;100.00;100145.88;5096946;28;20336;-59
2024/01/21 05:01:51;;;;;;;24.17;8.40;;;;;;;-3.22;100.00;100118.91;5097322;28;20098;-54
2024/01/21 05:04:18;;;;;;;22.27;10.63;;;;;;;-3.12;100.00;100130.56;5096881;28;20105;-54
2024/01/21 05:06:44;;;;;;;29.35;10.63;;;;;;;-3.57;100.00;100118.19;5097323;28;20110;-55
2024/01/21 05:09:11;;;;;;;23.80;9.25;;;;;;;-3.15;100.00;100149.03;5096873;28;20052;-57
2024/01/21 05:11:37;;;;;;;27.33;10.63;;;;;;;-3.08;100.00;100138.91;5096773;28;20060;-57
2024/01/21 05:14:04;;;;;;;20.58;9.95;;;;;;;-3.19;100.00;100121.09;5097054;28;20079;-53
2024/01/21 05:16:31;;;;;;;23.45;10.93;;;;;;;-3.04;100.00;100089.06;5096642;28;20048;-57
2024/01/21 05:18:57;;;;;;;22.75;10.13;;;;;;;-3.46;100.00;100041.41;5096862;28;20051;-55
2024/01/21 05:21:23;;;;;;;20.48;9.50;;;;;;;-3.56;100.00;100054.69;5096734;28;20131;-54
2024/01/21 05:23:51;;;;;;;26.73;8.73;;;;;;;-3.38;100.00;100097.25;5096962;28;20079;-57
2024/01/21 05:26:18;;;;;;;23.65;10.43;;;;;;;-3.50;100.00;100068.97;5096156;28;20091;-55
2024/01/21 05:28:45;;;;;;;21.15;10.00;;;;;;;-3.43;100.00;100110.63;5096865;28;20408;-53
2024/01/21 05:31:12;;;;;;;23.77;10.13;;;;;;;-3.37;100.00;100128.38;5096767;28;20048;-53
2024/01/21 05:33:40;;;;;;;22.10;9.68;;;;;;;-3.62;100.00;100128.88;5096982;28;20102;-56
2024/01/21 05:36:07;;;;;;;21.42;9.68;;;;;;;-3.57;100.00;100187.88;5096532;28;20048;-58
2024/01/21 05:38:33;;;;;;;24.60;9.60;;;;;;;-3.46;100.00;100196.91;5096663;28;20087;-54
2024/01/21 05:40:59;;;;;;;20.23;9.32;;;;;;;-3.10;100.00;100190.16;5096664;28;20134;-56
2024/01/21 05:43:25;;;;;;;22.48;9.27;;;;;;;-3.31;100.00;100113.97;5096436;28;20047;-53
2024/01/21 05:45:52;;;;;;;33.38;9.93;;;;;;;-3.15;100.00;100080.09;5096266;28;20098;-57
2024/01/21 05:48:19;;;;;;;25.10;10.70;;;;;;;-3.15;100.00;100068.56;5096168;28;20051;-53
2024/01/21 05:50:45;;;;;;;27.83;10.05;;;;;;;-2.99;100.00;100040.84;5096278;28;20325;-57
2024/01/21 05:53:11;;;;;;;24.10;9.60;;;;;;;-3.02;100.00;99989.56;5096039;28;20478;-55
2024/01/21 05:55:38;;;;;;;18.65;8.77;;;;;;;-3.15;100.00;99958.59;5096062;28;20424;-53
2024/01/21 05:58:05;;;;;;;24.83;8.73;;;;;;;-3.13;100.00;99951.91;5096017;28;20113;-52
2024/01/21 06:00:31;;;;;;;21.40;9.02;;;;;;;-3.19;100.00;99919.94;5096598;28;20151;-53
2024/01/21 06:02:57;;;;;;;19.33;8.48;;;;;;;-3.58;100.00;99909.41;5096072;28;20333;-57
2024/01/21 06:05:24;;;;;;;28.48;10.20;;;;;;;-3.65;100.00;99928.38;5096043;28;20088;-52
2024/01/21 06:07:51;;;;;;;24.45;9.18;;;;;;;-3.83;100.00;99948.28;5096050;28;20117;-57
2024/01/21 06:10:17;;;;;;;24.88;9.45;;;;;;;-4.00;100.00;99976.97;5095931;28;20059;-53
2024/01/21 06:12:44;;;;;;;20.00;9.02;;;;;;;-4.14;100.00;100030.09;5096368;28;20048;-52
2024/01/21 06:15:12;;;;;;;36.97;10.25;;;;;;;-4.32;100.00;100059.84;5096239;28;20044;-54
2024/01/21 06:17:38;;;;;;;36.72;9.07;;;;;;;-4.26;100.00;100097.16;5096435;28;20058;-56
2024/01/21 06:20:05;;;;;;;25.05;9.93;;;;;;;-4.30;100.00;100106.72;5097072;28;20052;-53
2024/01/21 06:22:32;;;;;;;27.15;10.00;;;;;;;-4.61;100.00;100136.69;5099696;28;20079;-54
2024/01/21 06:24:59;;;;;;;30.25;9.63;;;;;;;-4.56;100.00;100175.06;5099322;28;20059;-55
2024/01/21 06:27:25;;;;;;;20.08;9.35;;;;;;;-4.64;100.00;100169.28;5099698;28;20060;-54
2024/01/21 06:29:51;;;;;;;19.50;8.88;;;;;;;-4.63;100.00;100190.47;5099543;28;20073;-56
2024/01/21 06:32:18;;;;;;;25.73;10.57;;;;;;;-4.70;100.00;100197.00;5099154;28;20091;-57
2024/01/21 06:34:44;;;;;;;23.00;10.45;;;;;;;-4.82;100.00;100195.19;5099292;28;20044;-53
2024/01/21 06:37:10;;;;;;;23.92;9.73;;;;;;;-4.75;100.00;100221.81;5099321;28;20079;-56
2024/01/21 06:39:38;;;;;;;25.85;10.10;;;;;;;-4.81;100.00;100233.44;5099278;28;20419;-56
2024/01/21 06:42:04;;;;;;;22.30;9.40;;;;;;;-4.80;100.00;100254.63;5099102;28;20044;-55
2024/01/21 06:44:31;;;;;;;20.42;9.02;;;;;;;-4.78;100.00;100246.34;5099409;28;20052;-55
2024/01/21 06:46:57;;;;;;;31.98;9.65;;;;;;;-4.86;100.00;100244.06;5099043;28;20056;-58
2024/01/21 06:49:23;;;;;;;24.42;9.68;;;;;;;-5.00;100.00;100222.94;5099272;28;20052;-56
2024/01/21 06:51:54;;;;;;;31.38;9.80;;;;;;;-5.01;100.00;100220.47;5099171;28;20421;-55
2024/01/21 06:54:20;;;;;;;25.10;9.32;;;;;;;-4.95;100.00;100216.06;5099154;28;20048;-57
2024/01/21 06:56:47;;;;;;;38.08;10.50;;;;;;;-5.08;100.00;100219.81;5098650;28;20109;-58
2024/01/21 06:59:14;;;;;;;14.65;6.40;;;;;;;-5.12;100.00;100256.09;5099236;28;20316;-56
2024/01/21 07:01:40;;;;;;;28.35;11.23;;;;;;;-4.97;100.00;100325.94;5098960;28;20381;-57
2024/01/21 07:04:06;;;;;;;33.17;11.32;;;;;;;-4.71;100.00;100351.38;5098982;28;20051;-58
2024/01/21 07:06:33;;;;;;;27.52;9.65;;;;;;;-4.71;100.00;100346.03;5098998;28;20087;-56
2024/01/21 07:08:59;;;;;;;33.20;10.43;;;;;;;-4.58;100.00;100372.53;5098444;28;20117;-59
2024/01/21 07:11:25;;;;;;;25.58;10.65;;;;;;;-4.42;100.00;100362.16;5099090;28;20048;-56
2024/01/21 07:13:53;;;;;;;28.83;9.98;;;;;;;-4.40;100.00;100354.69;5098488;28;20328;-55
2024/01/21 07:16:19;;;;;;;25.98;11.15;;;;;;;-4.36;100.00;100340.59;5098897;28;20062;-57
2024/01/21 07:18:45;;;;;;;32.00;11.35;;;;;;;-4.14;100.00;100339.94;5098499;28;20083;-56
2024/01/21 07:21:12;;;;;;;20.52;8.75;;;;;;;-4.21;100.00;100304.44;5098691;28;20109;-58
2024/01/21 07:23:38;;;;;;;22.40;10.05;;;;;;;-4.21;100.00;100283.84;5098462;28;20080;-59
2024/01/21 07:26:05;;;;;;;19.42;9.20;;;;;;;-4.29;100.00;100266.31;5098855;28;20068;-58
2024/01/21 07:28:31;;;;;;;22.90;9.50;;;;;;;-4.14;100.00;100268.44;5098106;28;20490;-54
2024/01/21 07:30:58;;;;;;;24.50;9.60;;;;;;;-3.93;100.00;100263.41;5098080;28;20363;-56
2024/01/21 07:33:24;;;;;;;18.70;9.30;;;;;;;-3.91;100.00;100246.06;5098443;28;20297;-56
2024/01/21 07:35:51;;;;;;;23.50;8.68;;;;;;;-3.91;100.00;100223.81;5098209;28;20055;-56
2024/01/21 07:38:17;;;;;;;21.77;9.57;;;;;;;-3.75;100.00;100195.41;5098482;28;20121;-59
2024/01/21 07:40:45;;;;;;;17.70;8.85;;;;;;;-3.59;100.00;100144.44;5098296;28;20044;-58
2024/01/21 07:43:12;;;;;;;23.80;10.35;;;;;;;-3.74;100.00;100057.69;5098355;28;20139;-58
2024/01/21 07:45:38;;;;;;;23.10;9.70;;;;;;;-3.64;100.00;100012.25;5097924;28;20056;-56
2024/01/21 07:48:06;;;;;;;20.00;8.50;;;;;;;-3.36;100.00;99985.22;5098412;28;20078;-58
2024/01/21 07:50:33;;;;;;;19.73;8.13;;;;;;;-2.99;100.00;99930.84;5098019;28;20048;-58
2024/01/21 07:52:59;;;;;;;18.35;8.48;;;;;;;-2.55;100.00;99860.78;5098518;28;20044;-53
2024/01/21 07:55:25;;;;;;;20.60;8.07;;;;;;;-2.33;100.00;99788.13;5097779;28;20164;-57
2024/01/21 07:57:52;;;;;;;20.27;9.02;;;;;;;-2.12;100.00;99737.94;5097859;28;20048;-56
2024/01/21 08:00:18;;;;;;;21.27;8.68;;;;;;;-2.30;100.00;99692.78;5097884;28;20109;-54
2024/01/21 08:02:47;;;;;;;19.85;9.15;;;;;;;-2.70;100.00;99670.16;5098097;28;20080;-56
2024/01/21 08:05:14;;;;;;;22.63;10.18;;;;;;;-2.50;100.00;99664.84;5098189;28;20048;-53
2024/01/21 08:07:41;;;;;;;29.35;8.68;;;;;;;-2.46;100.00;99670.50;5098237;28;20067;-58
2024/01/21 08:10:09;;;;;;;30.88;10.20;;;;;;;-2.62;100.00;99658.91;5097954;28;20139;-57
2024/01/21 08:12:36;;;;;;;16.90;8.82;;;;;;;-2.28;100.00;99661.91;5097908;28;20059;-55
2024/01/21 08:15:03;;;;;;;31.98;10.07;;;;;;;-2.16;100.00;99667.81;5098150;28;20075;-53
2024/01/21 08:17:29;;;;;;;20.88;8.60;;;;;;;-2.16;100.00;99675.88;5097802;28;20066;-55
2024/01/21 08:19:56;;;;;;;24.15;10.48;;;;;;;-2.39;100.00;99697.88;5097942;28;20083;-56
2024/01/21 08:22:23;;;;;;;26.23;11.18;;;;;;;-2.62;100.00;99696.50;5097560;28;20094;-55
2024/01/21 08:24:52;;;;;;;26.60;9.50;;;;;;;-2.72;100.00;99691.09;5097503;28;20333;-56
2024/01/21 08:27:19;;;;;;;25.65;8.90;;;;;;;-2.68;100.00;99692.19;5097563;28;20196;-53
2024/01/21 08:29:45;;;;;;;30.80;10.38;;;;;;;-2.49;100.00;99687.94;5097656;28;20157;-56
2024/01/21 08:32:11;;;;;;;22.20;9.77;;;;;;;-2.40;100.00;99693.56;5097623;28;20058;-59
2024/01/21 08:34:39;;;;;;;32.40;10.18;;;;;;;-2.74;100.00;99694.03;5097543;28;20080;-55
2024/01/21 08:37:05;;;;;;;27.15;10.35;;;;;;;-2.32;100.00;99695.75;5097412;28;20056;-53
2024/01/21 08:39:32;;;;;;;21.35;9.48;;;;;;;-2.57;100.00;99703.75;5097649;28;20059;-59
2024/01/21 08:41:58;;;;;;;25.67;10.07;;;;;;;-2.54;100.00;99709.38;5096886;28;20309;-54
2024/01/21 08:44:25;;;;;;;22.92;11.02;;;;;;;-2.82;100.00;99715.22;5097020;28;20387;-56
2024/01/21 08:46:51;;;;;;;33.05;10.60;;;;;;;-2.78;100.00;99716.28;5097198;28;20117;-56
2024/01/21 08:49:17;;;;;;;27.10;11.75;;;;;;;-2.26;100.00;99718.84;5097043;28;20139;-55
2024/01/21 08:51:44;;;;;;;21.27;9.63;;;;;;;-2.04;100.00;99745.44;5097325;28;20048;-58
2024/01/21 08:54:10;;;;;;;23.42;11.55;;;;;;;-1.80;100.00;99771.81;5097052;28;20088;-56
2024/01/21 08:56:37;;;;;;;24.75;9.70;;;;;;;-1.91;100.00;99797.88;5096942;28;20059;-53
2024/01/21 08:59:03;;;;;;;25.58;10.15;;;;;;;-1.72;100.00;99806.22;5097056;28;20063;-56
2024/01/21 09:01:30;;;;;;;25.52;10.82;;;;;;;-1.68;100.00;99848.44;5096916;28;20073;-52
2024/01/21 09:03:56;;;;;;;24.67;11.05;;;;;;;-1.67;100.00;99859.97;5097046;28;20056;-57
2024/01/21 09:06:22;;;;;;;26.48;10.48;;;;;;;-1.50;100.00;99876.69;5097007;28;20340;-56
2024/01/21 09:08:52;;;;;;;27.45;11.73;;;;;;;-1.58;100.00;99893.34;5097265;28;20062;-54
2024/01/21 09:11:18;;;;;;;28.63;12.23;;;;;;;-1.49;100.00;99894.44;5096771;28;20059;-55
2024/01/21 09:13:45;;;;;;;22.25;10.20;;;;;;;-1.52;100.00;99902.25;5097156;28;20385;-57
2024/01/21 09:16:16;;;;;;;28.10;11.55;;;;;;;-1.42;100.00;99902.25;5096603;28;20409;-53
2024/01/21 09:18:42;;;;;;;22.33;9.32;;;;;;;-1.33;100.00;99906.03;5097213;28;20055;-55
2024/01/21 09:21:08;;;;;;;25.15;10.23;;;;;;;-1.44;100.00;99923.22;5096567;28;20048;-55
2024/01/21 09:23:35;;;;;;;26.27;9.52;;;;;;;-1.47;100.00;99932.63;5096597;28;20055;-57
2024/01/21 09:26:01;;;;;;;26.05;9.40;;;;;;;-1.57;100.00;99932.59;5096786;28;20055;-55
2024/01/21 09:28:28;;;;;;;20.23;9.80;;;;;;;-1.57;100.00;99921.84;5096583;28;20059;-53
2024/01/21 09:30:55;;;;;;;27.02;11.15;;;;;;;-1.71;100.00;99920.75;5096844;28;20055;-58
2024/01/21 09:33:21;;;;;;;28.20;10.63;;;;;;;-1.95;100.00;99913.16;5096410;28;20052;-56
2024/01/21 09:35:49;;;;;;;27.60;11.13;;;;;;;-2.17;100.00;99891.81;5096717;28;20083;-57
2024/01/21 09:38:18;;;;;;;29.60;11.73;;;;;;;-2.17;100.00;99858.78;5096590;28;20063;-55
2024/01/21 09:40:51;;;;;;;29.30;10.80;;;;;;;-2.09;100.00;99849.44;5096853;28;20055;-56
2024/01/21 09:43:17;;;;;;;23.35;10.02;;;;;;;-2.18;100.00;99838.38;5096289;28;20328;-56
2024/01/21 09:45:43;;;;;;;31.15;10.52;;;;;;;-1.96;100.00;99832.81;5096676;28;20079;-58
2024/01/21 09:48:12;;;;;;;22.17;8.38;;;;;;;-1.93;100.00;99832.28;5096500;28;20336;-54
2024/01/21 09:50:39;;;;;;;26.23;9.82;;;;;;;-1.98;100.00;99824.19;5096163;28;20087;-55
2024/01/21 09:53:05;;;;;;;36.55;10.98;;;;;;;-1.59;100.00;99843.34;5096554;28;20055;-56
2024/01/21 09:55:31;;;;;;;34.92;11.05;;;;;;;-1.99;100.00;99869.06;5099717;28;20048;-53
2024/01/21 09:58:02;;;;;;;22.48;10.10;;;;;;;-2.17;100.00;99856.09;5100167;28;20090;-54
2024/01/21 10:00:30;;;;;;;30.45;11.55;;;;;;;-2.12;100.00;99845.38;5099757;28;20048;-53
2024/01/21 10:02:56;;;;;;;17.05;7.75;;;;;;;-2.28;100.00;99849.09;5100191;28;20105;-54
2024/01/21 10:05:23;;;;;;;24.98;11.15;;;;;;;-2.27;100.00;99826.53;5099844;28;20116;-57
2024/01/21 10:07:50;;;;;;;28.77;10.98;;;;;;;-2.19;100.00;99828.72;5100028;28;20366;-52
2024/01/21 10:10:17;;;;;;;24.80;12.75;;;;;;;-1.98;100.00;99824.19;5099602;28;20048;-54
2024/01/21 10:12:44;;;;;;;29.00;10.93;;;;;;;-1.71;100.00;99832.84;5100257;28;20324;-55
2024/01/21 10:15:13;;;;;;;26.38;11.93;;;;;;;-1.84;100.00;99854.06;5099844;28;20337;-54
2024/01/21 10:17:40;;;;;;;36.08;11.32;;;;;;;-1.91;100.00;99852.41;5099676;28;20051;-57
2024/01/21 10:20:12;;;;;;;28.83;11.20;;;;;;;-1.91;100.00;99867.75;5099489;28;20130;-56
2024/01/21 10:22:40;;;;;;;28.55;11.57;;;;;;;-1.80;100.00;99863.19;5099414;28;20309;-56
2024/01/21 10:25:12;;;;;;;39.83;12.30;;;;;;;-1.98;100.00;99864.50;5099812;28;20201;-52
2024/01/21 10:27:38;;;;;;;36.38;15.40;;;;;;;-1.97;100.00;99845.41;5099261;28;20102;-54
2024/01/21 10:30:08;;;;;;;26.90;11.02;;;;;;;-2.09;100.00;99841.38;5099623;28;20101;-55
2024/01/21 10:32:35;;;;;;;30.40;13.43;;;;;;;-2.09;100.00;99839.50;5099287;28;20048;-57
2024/01/21 10:35:02;;;;;;;30.30;12.63;;;;;;;-2.09;100.00;99844.06;5099701;28;20052;-57
2024/01/21 10:37:29;;;;;;;48.17;13.38;;;;;;;-2.01;100.00;99835.47;5099014;28;20055;-57
2024/01/21 10:39:57;;;;;;;34.97;12.95;;;;;;;-2.08;100.00;99837.59;5099168;28;20066;-56
2024/01/21 10:42:23;;;;;;;41.30;13.00;;;;;;;-2.11;100.00;99814.75;5099151;28;20427;-58
2024/01/21 10:44:51;;;;;;;25.10;11.57;;;;;;;-2.16;100.00;99809.38;5099306;28;20044;-53
2024/01/21 10:47:20;;;;;;;31.00;12.18;;;;;;;-1.99;100.00;99812.66;5099114;28;20056;-57
2024/01/21 10:49:49;;;;;;;29.83;12.63;;;;;;;-1.93;100.00;99818.84;5099074;28;20324;-59
2024/01/21 10:52:17;;;;;;;35.85;12.70;;;;;;;-1.93;100.00;99824.22;5099162;28;20048;-58
2024/01/21 10:54:46;;;;;;;36.20;11.63;;;;;;;-1.87;100.00;99833.06;5098750;28;20056;-55
2024/01/21 10:57:14;;;;;;;37.78;12.23;;;;;;;-1.72;100.00;99841.19;5099009;28;20060;-55
2024/01/21 10:59:40;;;;;;;27.48;10.82;;;;;;;-1.74;100.00;99854.88;5098667;28;20052;-54
2024/01/21 11:02:09;;;;;;;34.75;12.90;;;;;;;-1.88;100.00;99861.84;5099279;28;20052;-57
2024/01/21 11:04:35;;;;;;;31.50;14.10;;;;;;;-2.00;100.00;99853.19;5098600;28;20052;-56
2024/01/21 11:07:04;;;;;;;31.60;13.23;;;;;;;-1.86;100.00;99840.09;5098314;28;20110;-56